Dnipropetrovs'k, Ukraine
Current Conditions -  °F | °C
As of 10:30 PM on Sunday 21 Dec 2014 (Local Time) from UKDD Reporting Station
Haze Haze  
Wind Chill: 26°   Ceiling: 2900
Heat Index: 32°   Visibility: 1.7mi
Dew Point: 32°   Wind: 7mph
Humidity: 100%   Direction: 280°W
Pressure: 29.85"   Gusts: NA
Location:  48.34°N, 34.91°E
Report Text: UKDD 211930Z 28003MPS 2800 BR OVC029 00/M00 Q1011 26210170 NOSIG
Loading
Personal Weather Stations






























Interactive Weather Map New forecast layout! Learn more

10-Day Weather Forecast

Advertisements
Track Severe Weather on mobile